Time;durP1;ratioP1;P1;durP2;ratioP2;P2;SDS_P1;SDS_P2;PMS_P1;PMS_P2;Temp;Humidity;BMP_temperature;BMP_pressure;BME280_temperature;BME280_humidity;BME280_pressure;Samples;Min_cycle;Max_cycle;Signal;HPM_P1;HPM_P2
2021/01/02 00:00:01;;;;;;;49.40;39.10;;;2.00;99.90;;;;;;5070121;28;20213;-77
2021/01/02 00:02:52;;;;;;;42.63;34.60;;;2.00;99.90;;;;;;5070189;28;20665;-77
2021/01/02 00:05:19;;;;;;;40.50;31.23;;;2.00;99.90;;;;;;5070562;28;20662;-76
2021/01/02 00:08:10;;;;;;;39.47;29.23;;;2.10;99.90;;;;;;5069361;28;20284;-76
2021/01/02 00:11:03;;;;;;;30.67;23.23;;;1.90;99.90;;;;;;5056390;28;20207;-80
2021/01/02 00:13:47;;;;;;;28.03;23.40;;;1.90;99.90;;;;;;5070558;28;20623;-76
2021/01/02 00:16:39;;;;;;;26.67;20.30;;;2.00;99.90;;;;;;5070189;28;20228;-74
2021/01/02 00:19:07;;;;;;;21.27;17.20;;;2.10;99.90;;;;;;5069922;28;20210;-81
2021/01/02 00:21:47;;;;;;;23.40;20.70;;;2.20;99.90;;;;;;5070243;28;20724;-79
2021/01/02 00:24:34;;;;;;;22.80;18.63;;;2.30;99.90;;;;;;5070781;28;20204;-73
2021/01/02 00:27:07;;;;;;;29.83;21.90;;;2.20;99.90;;;;;;5070254;28;20229;-78
2021/01/02 00:30:03;;;;;;;29.37;21.87;;;2.20;99.90;;;;;;5070575;28;20237;-82
2021/01/02 00:32:40;;;;;;;20.83;16.67;;;2.10;99.90;;;;;;5070296;28;20255;-83
2021/01/02 00:35:12;;;;;;;22.90;16.47;;;2.00;99.90;;;;;;5069881;28;20261;-82
2021/01/02 00:37:40;;;;;;;21.80;16.07;;;1.90;99.90;;;;;;5070850;28;20255;-81
2021/01/02 00:40:12;;;;;;;29.07;18.70;;;1.80;99.90;;;;;;5069979;28;20244;-75
2021/01/02 00:42:41;;;;;;;23.07;16.03;;;1.70;99.90;;;;;;5070835;28;20289;-78
2021/01/02 00:45:10;;;;;;;21.77;17.97;;;1.70;99.90;;;;;;5069563;28;20295;-80
2021/01/02 00:47:38;;;;;;;21.57;16.87;;;1.60;99.90;;;;;;5069883;28;20268;-80
2021/01/02 00:50:07;;;;;;;24.17;16.47;;;1.60;99.90;;;;;;5069791;28;20601;-80
2021/01/02 00:52:59;;;;;;;21.03;15.80;;;1.50;99.90;;;;;;5070096;28;20210;-80
2021/01/02 00:56:06;;;;;;;25.00;16.87;;;1.40;99.90;;;;;;5070025;28;20673;-74
2021/01/02 00:58:59;;;;;;;21.43;17.30;;;1.50;99.90;;;;;;5070190;28;20586;-80
2021/01/02 01:01:35;;;;;;;23.13;19.53;;;1.70;99.90;;;;;;5063019;28;20673;-76
2021/01/02 01:04:46;;;;;;;22.80;16.17;;;1.90;99.90;;;;;;5073175;28;20206;-79
2021/01/02 01:07:17;;;;;;;23.33;16.17;;;2.00;99.90;;;;;;5073810;28;20210;-78
2021/01/02 01:09:49;;;;;;;21.73;15.67;;;2.20;99.90;;;;;;5073325;28;20210;-78
2021/01/02 01:12:18;;;;;;;20.77;16.80;;;2.20;99.90;;;;;;5073491;28;20207;-78
2021/01/02 01:14:46;;;;;;;22.43;16.60;;;2.20;99.90;;;;;;5073404;28;20221;-74
2021/01/02 01:17:19;;;;;;;25.97;17.83;;;2.10;99.90;;;;;;5073518;28;20214;-80
2021/01/02 01:19:47;;;;;;;21.83;16.20;;;2.00;99.90;;;;;;5072592;28;20213;-78
2021/01/02 01:22:16;;;;;;;23.33;16.77;;;2.00;99.90;;;;;;5073356;28;20209;-74
2021/01/02 01:24:48;;;;;;;22.70;17.50;;;2.10;99.90;;;;;;5073524;28;20210;-79
2021/01/02 01:27:16;;;;;;;19.77;16.13;;;2.20;99.90;;;;;;5073162;28;20227;-77
2021/01/02 01:29:56;;;;;;;22.33;16.37;;;2.10;99.90;;;;;;5073360;28;20669;-77
2021/01/02 01:32:25;;;;;;;22.43;17.10;;;2.10;99.90;;;;;;5059627;28;20205;-80
2021/01/02 01:34:56;;;;;;;21.00;15.10;;;2.20;99.90;;;;;;5072460;28;20707;-78
2021/01/02 01:37:25;;;;;;;23.63;16.43;;;2.20;99.90;;;;;;5072996;28;20198;-81
2021/01/02 01:39:52;;;;;;;20.37;15.33;;;2.30;99.90;;;;;;5072576;28;20752;-81
2021/01/02 01:42:22;;;;;;;23.23;15.60;;;2.30;99.90;;;;;;5073015;28;20247;-81
2021/01/02 01:44:57;;;;;;;19.57;13.33;;;2.40;99.90;;;;;;5072958;28;20210;-83
2021/01/02 01:47:35;;;;;;;17.20;13.07;;;2.40;99.90;;;;;;5072964;28;20225;-82
2021/01/02 01:50:22;;;;;;;20.87;14.67;;;2.50;99.90;;;;;;5072149;28;20200;-79
2021/01/02 01:53:33;;;;;;;24.00;14.50;;;2.50;99.90;;;;;;5058810;28;20202;-78
2021/01/02 01:56:09;;;;;;;17.50;14.10;;;2.60;99.90;;;;;;5072372;28;20237;-80
2021/01/02 01:59:09;;;;;;;24.17;16.00;;;2.60;99.90;;;;;;5072678;28;20221;-82
2021/01/02 02:01:38;;;;;;;19.13;14.20;;;2.70;99.90;;;;;;5061288;28;20206;-82
2021/01/02 02:04:51;;;;;;;18.00;13.10;;;2.80;99.90;;;;;;5072153;28;20629;-80
2021/01/02 02:07:20;;;;;;;18.63;12.40;;;2.70;99.90;;;;;;5072900;28;20218;-80
2021/01/02 02:09:58;;;;;;;16.67;13.13;;;2.60;99.90;;;;;;5072357;28;20240;-79
2021/01/02 02:12:32;;;;;;;20.47;15.10;;;2.60;99.90;;;;;;5072659;28;20237;-81
2021/01/02 02:15:10;;;;;;;17.70;13.53;;;2.50;99.90;;;;;;5071329;28;20228;-81
2021/01/02 02:17:48;;;;;;;17.20;13.27;;;2.70;99.90;;;;;;5072085;28;20223;-80
2021/01/02 02:20:19;;;;;;;17.43;13.63;;;2.70;99.90;;;;;;5060105;28;20218;-78
2021/01/02 02:22:46;;;;;;;17.13;12.67;;;2.80;99.90;;;;;;5072544;28;20209;-70
2021/01/02 02:25:16;;;;;;;16.50;13.80;;;2.80;99.90;;;;;;5073031;28;20202;-79
2021/01/02 02:27:44;;;;;;;24.27;14.80;;;2.90;99.90;;;;;;5072635;28;20229;-82
2021/01/02 02:30:14;;;;;;;20.83;14.40;;;2.80;99.90;;;;;;5072706;28;20201;-81
2021/01/02 02:32:42;;;;;;;21.40;15.10;;;2.80;99.90;;;;;;5072469;28;20220;-77
2021/01/02 02:35:12;;;;;;;20.07;14.57;;;2.60;99.90;;;;;;5072222;28;20236;-79
2021/01/02 02:37:41;;;;;;;20.43;14.77;;;2.60;99.90;;;;;;5073068;28;20213;-78
2021/01/02 02:40:09;;;;;;;22.73;15.07;;;2.60;99.90;;;;;;5071355;28;20588;-79
2021/01/02 02:42:38;;;;;;;19.47;14.50;;;2.60;99.90;;;;;;5072001;28;20228;-79
2021/01/02 02:45:11;;;;;;;16.33;12.50;;;2.70;99.90;;;;;;5071163;28;20228;-76
2021/01/02 02:47:42;;;;;;;18.97;13.13;;;2.60;99.90;;;;;;5071630;28;20218;-80
2021/01/02 02:50:18;;;;;;;18.83;12.80;;;2.60;99.90;;;;;;5071836;28;20607;-77
2021/01/02 02:52:49;;;;;;;19.50;13.70;;;2.60;99.90;;;;;;5071745;28;20208;-80
2021/01/02 02:55:15;;;;;;;18.57;13.93;;;2.60;99.90;;;;;;5071493;28;20206;-80
2021/01/02 02:57:48;;;;;;;17.67;13.13;;;2.60;99.90;;;;;;5072033;28;20211;-81
2021/01/02 03:00:16;;;;;;;20.33;14.40;;;2.60;99.90;;;;;;5071361;28;20221;-79
2021/01/02 03:02:46;;;;;;;16.63;13.20;;;2.60;99.90;;;;;;5071789;28;20246;-79
2021/01/02 03:05:17;;;;;;;19.93;13.97;;;2.60;99.90;;;;;;5072079;28;20202;-78
2021/01/02 03:07:45;;;;;;;18.20;13.73;;;2.50;99.90;;;;;;5071298;28;20249;-74
2021/01/02 03:10:13;;;;;;;15.23;12.00;;;2.60;99.90;;;;;;5071688;28;20206;-81
2021/01/02 03:12:41;;;;;;;19.83;12.73;;;2.50;99.90;;;;;;5071492;28;20245;-77
2021/01/02 03:15:10;;;;;;;18.50;13.33;;;2.50;99.90;;;;;;5070872;28;20209;-80
2021/01/02 03:17:36;;;;;;;15.37;13.57;;;2.60;99.90;;;;;;5071026;28;20213;-80
2021/01/02 03:20:04;;;;;;;15.30;12.87;;;2.60;99.90;;;;;;5070933;28;20661;-81
2021/01/02 03:22:31;;;;;;;16.33;13.53;;;2.60;99.90;;;;;;5071428;28;20241;-82
2021/01/02 03:24:58;;;;;;;16.57;12.63;;;2.60;99.90;;;;;;5070391;28;20787;-76
2021/01/02 03:27:24;;;;;;;20.73;14.60;;;2.60;99.90;;;;;;5070865;28;20797;-79
2021/01/02 03:29:51;;;;;;;15.17;11.87;;;2.60;99.90;;;;;;5069982;28;20216;-76
2021/01/02 03:32:17;;;;;;;14.63;11.53;;;2.60;99.90;;;;;;5070909;28;20213;-78
2021/01/02 03:34:43;;;;;;;16.70;11.67;;;2.60;99.90;;;;;;5071182;28;20243;-70
2021/01/02 03:37:10;;;;;;;19.23;11.77;;;2.60;99.90;;;;;;5071095;28;20210;-78
2021/01/02 03:39:37;;;;;;;13.33;11.40;;;2.60;99.90;;;;;;5070983;28;20267;-75
2021/01/02 03:42:06;;;;;;;19.97;11.17;;;2.40;99.90;;;;;;5069934;28;20663;-76
2021/01/02 03:44:33;;;;;;;14.07;11.10;;;2.40;99.90;;;;;;5070153;28;20206;-75
2021/01/02 03:46:59;;;;;;;9.60;8.40;;;2.30;99.90;;;;;;5069795;28;20237;-75
2021/01/02 03:49:25;;;;;;;11.50;9.27;;;2.20;99.90;;;;;;5070984;28;20245;-72
2021/01/02 03:51:52;;;;;;;12.40;8.77;;;2.20;99.90;;;;;;5069825;28;20704;-74
2021/01/02 03:54:18;;;;;;;11.63;10.40;;;2.10;99.90;;;;;;5070663;28;20197;-76
2021/01/02 03:56:50;;;;;;;10.50;8.17;;;2.00;99.90;;;;;;5070298;28;20763;-73
2021/01/02 03:59:16;;;;;;;12.27;8.43;;;2.00;99.90;;;;;;5070582;28;20232;-75
2021/01/02 04:01:43;;;;;;;9.83;7.90;;;1.90;99.90;;;;;;5071491;28;20202;-78
2021/01/02 04:04:09;;;;;;;9.07;7.97;;;1.80;99.90;;;;;;5070897;28;20206;-83
2021/01/02 04:06:36;;;;;;;10.20;7.67;;;1.70;99.90;;;;;;5071065;28;20272;-82
2021/01/02 04:09:02;;;;;;;8.67;7.77;;;1.70;99.90;;;;;;5070249;28;20210;-81
2021/01/02 04:11:29;;;;;;;13.97;9.00;;;1.60;99.90;;;;;;5070652;28;20210;-81
2021/01/02 04:13:56;;;;;;;10.93;8.00;;;1.50;99.90;;;;;;5069794;28;20216;-74
2021/01/02 04:16:22;;;;;;;6.90;6.20;;;1.50;99.90;;;;;;5070140;28;20210;-74
2021/01/02 04:18:49;;;;;;;11.33;8.17;;;1.50;99.90;;;;;;5070747;28;20209;-77
2021/01/02 04:21:15;;;;;;;7.90;7.03;;;1.60;99.90;;;;;;5070357;28;20217;-78
2021/01/02 04:23:42;;;;;;;7.40;6.70;;;1.50;99.90;;;;;;5070699;28;20210;-84
2021/01/02 04:26:08;;;;;;;10.43;7.83;;;1.40;99.90;;;;;;5070236;28;20217;-80
2021/01/02 04:28:34;;;;;;;8.67;6.90;;;1.30;99.90;;;;;;5070062;28;20238;-78
2021/01/02 04:31:02;;;;;;;7.73;6.43;;;1.20;99.90;;;;;;5070184;28;20207;-75
2021/01/02 04:33:28;;;;;;;8.87;7.60;;;1.20;99.90;;;;;;5070189;28;20565;-76
2021/01/02 04:35:55;;;;;;;8.10;7.27;;;1.20;99.90;;;;;;5069997;28;20211;-78
2021/01/02 04:38:21;;;;;;;11.70;7.23;;;1.00;99.90;;;;;;5073945;28;20210;-81
2021/01/02 04:40:47;;;;;;;8.50;7.10;;;1.00;99.90;;;;;;5074625;28;20206;-81
2021/01/02 04:43:14;;;;;;;10.30;7.40;;;1.00;99.90;;;;;;5074175;28;20218;-79
2021/01/02 04:45:41;;;;;;;10.17;7.93;;;0.90;99.90;;;;;;5074322;28;20224;-81
2021/01/02 04:48:09;;;;;;;8.03;6.83;;;0.90;99.90;;;;;;5073769;28;20288;-81
2021/01/02 04:50:36;;;;;;;8.37;7.43;;;0.80;99.90;;;;;;5073983;28;20587;-80
2021/01/02 04:53:04;;;;;;;8.50;7.03;;;0.70;99.90;;;;;;5073790;28;20206;-80
2021/01/02 04:55:33;;;;;;;11.20;8.93;;;0.60;99.90;;;;;;5073538;28;20209;-78
2021/01/02 04:58:05;;;;;;;12.00;8.20;;;0.60;99.90;;;;;;5073282;28;20298;-83
2021/01/02 05:00:35;;;;;;;10.53;7.60;;;0.50;99.90;;;;;;5074207;28;20245;-77
2021/01/02 05:03:03;;;;;;;10.40;8.83;;;0.50;99.90;;;;;;5074086;28;20209;-77
2021/01/02 05:05:31;;;;;;;11.00;8.90;;;0.50;99.90;;;;;;5073903;28;20237;-74
2021/01/02 05:07:57;;;;;;;12.87;10.03;;;0.40;99.90;;;;;;5073202;28;20287;-82
2021/01/02 05:10:23;;;;;;;9.73;7.70;;;0.40;99.90;;;;;;5073588;28;20205;-81
2021/01/02 05:12:50;;;;;;;9.83;7.67;;;0.30;99.90;;;;;;5073014;28;20202;-82
2021/01/02 05:15:18;;;;;;;20.93;9.63;;;0.20;99.90;;;;;;5073419;28;20213;-81
2021/01/02 05:17:48;;;;;;;8.77;7.10;;;0.20;99.90;;;;;;5073503;28;20213;-78
2021/01/02 05:20:17;;;;;;;10.33;8.07;;;0.30;99.90;;;;;;5073536;28;20202;-75
2021/01/02 05:22:45;;;;;;;11.20;8.93;;;0.40;99.90;;;;;;5073406;28;20222;-74
2021/01/02 05:25:14;;;;;;;10.50;8.00;;;0.40;99.90;;;;;;5060166;28;20203;-81
2021/01/02 05:27:43;;;;;;;11.27;8.17;;;0.30;99.90;;;;;;5073730;28;20257;-76
2021/01/02 05:30:18;;;;;;;9.33;7.67;;;0.30;99.90;;;;;;5073398;28;20294;-79
2021/01/02 05:32:58;;;;;;;9.73;7.43;;;0.20;99.90;;;;;;5072995;28;20201;-75
2021/01/02 05:35:26;;;;;;;8.30;7.30;;;0.20;99.90;;;;;;5073064;28;20732;-73
2021/01/02 05:37:53;;;;;;;8.40;7.53;;;0.20;99.90;;;;;;5072678;28;20574;-71
2021/01/02 05:40:33;;;;;;;8.97;7.60;;;0.20;99.90;;;;;;5073200;28;20198;-77
2021/01/02 05:43:01;;;;;;;7.80;7.00;;;0.10;99.90;;;;;;5072535;28;20665;-77
2021/01/02 05:45:28;;;;;;;8.43;7.27;;;0.10;99.90;;;;;;5072433;28;20213;-76
2021/01/02 05:47:57;;;;;;;8.93;7.07;;;0.10;99.90;;;;;;5072502;28;20230;-82
2021/01/02 05:50:24;;;;;;;10.90;7.87;;;0.10;99.90;;;;;;5073114;28;20209;-84
2021/01/02 05:52:51;;;;;;;11.50;7.00;;;0.10;99.90;;;;;;5073191;28;20298;-82
2021/01/02 05:55:32;;;;;;;10.43;7.50;;;0.00;99.90;;;;;;5073154;28;20202;-85
2021/01/02 05:58:16;;;;;;;9.80;7.77;;;-0.10;99.90;;;;;;5072285;28;20206;-79
2021/01/02 06:00:44;;;;;;;8.87;6.60;;;-0.10;99.90;;;;;;5072497;28;20719;-81
2021/01/02 06:03:25;;;;;;;10.87;7.37;;;0.00;99.90;;;;;;5073274;28;20210;-82
2021/01/02 06:05:56;;;;;;;8.37;7.37;;;-0.10;99.90;;;;;;5071639;28;20206;-78
2021/01/02 06:08:37;;;;;;;8.80;7.43;;;-0.10;99.90;;;;;;5072142;28;20269;-73
2021/01/02 06:11:06;;;;;;;6.70;5.87;;;-0.20;99.90;;;;;;5071321;28;20724;-75
2021/01/02 06:13:34;;;;;;;7.27;6.00;;;-0.20;99.90;;;;;;5072513;28;20213;-76
2021/01/02 06:16:02;;;;;;;7.03;5.73;;;-0.20;99.90;;;;;;5071567;28;20712;-78
2021/01/02 06:18:30;;;;;;;7.23;6.53;;;-0.30;99.90;;;;;;5072088;28;20629;-74
2021/01/02 06:21:00;;;;;;;9.07;6.80;;;-0.20;99.90;;;;;;5071542;28;20210;-79
2021/01/02 06:23:27;;;;;;;8.30;6.40;;;-0.10;99.90;;;;;;5071947;28;20210;-80
2021/01/02 06:25:54;;;;;;;13.70;6.30;;;-0.10;99.90;;;;;;5071928;28;20206;-79
2021/01/02 06:28:24;;;;;;;6.70;5.77;;;-0.10;99.90;;;;;;5071831;28;20230;-82
2021/01/02 06:30:51;;;;;;;8.50;6.30;;;0.00;99.90;;;;;;5071821;28;20206;-84
2021/01/02 06:33:18;;;;;;;6.57;5.53;;;0.00;99.90;;;;;;5072190;28;20209;-82
2021/01/02 06:35:45;;;;;;;7.77;6.40;;;0.00;99.90;;;;;;5072237;28;20210;-81
2021/01/02 06:38:13;;;;;;;8.43;5.73;;;0.00;99.90;;;;;;5072211;28;20203;-80
2021/01/02 06:40:46;;;;;;;7.73;6.23;;;0.00;99.90;;;;;;5072101;28;20279;-81
2021/01/02 06:43:15;;;;;;;6.83;5.67;;;0.20;99.90;;;;;;5071999;28;20210;-80
2021/01/02 06:46:01;;;;;;;8.37;5.07;;;0.40;99.90;;;;;;5071764;28;20685;-81
2021/01/02 06:48:38;;;;;;;6.90;5.50;;;0.50;99.90;;;;;;5071508;28;20279;-81
2021/01/02 06:51:27;;;;;;;6.53;4.60;;;0.50;99.90;;;;;;5071346;28;20209;-80
2021/01/02 06:53:54;;;;;;;6.10;5.27;;;0.50;99.90;;;;;;5070802;28;20210;-79
2021/01/02 06:56:35;;;;;;;6.93;5.13;;;0.40;99.90;;;;;;5071334;28;20237;-81
2021/01/02 06:59:03;;;;;;;5.63;4.67;;;0.40;99.90;;;;;;5068422;28;21584;-81
2021/01/02 07:01:46;;;;;;;7.33;5.50;;;0.40;99.90;;;;;;5071070;28;20299;-80
2021/01/02 07:04:12;;;;;;;7.87;6.10;;;0.40;99.90;;;;;;5071184;28;20198;-81
2021/01/02 07:06:43;;;;;;;7.57;6.20;;;0.50;99.90;;;;;;5071014;28;20238;-81
2021/01/02 07:09:24;;;;;;;6.33;4.80;;;0.50;99.90;;;;;;5070918;28;20226;-81
2021/01/02 07:11:52;;;;;;;6.70;5.33;;;0.50;99.90;;;;;;5059263;28;20685;-82
2021/01/02 07:14:26;;;;;;;6.73;5.00;;;0.50;99.90;;;;;;5071139;28;20263;-82
2021/01/02 07:17:06;;;;;;;6.03;5.10;;;0.50;99.90;;;;;;5059332;28;20217;-81
2021/01/02 07:19:37;;;;;;;6.60;5.90;;;0.60;99.90;;;;;;5070362;28;20289;-81
2021/01/02 07:22:05;;;;;;;5.97;5.10;;;0.70;99.90;;;;;;5070005;28;20650;-80
2021/01/02 07:24:33;;;;;;;6.93;5.23;;;0.70;99.90;;;;;;5070778;28;20210;-81
2021/01/02 07:27:00;;;;;;;6.40;4.83;;;0.70;99.90;;;;;;5068260;28;20259;-80
2021/01/02 07:29:28;;;;;;;6.40;5.10;;;0.70;99.90;;;;;;5067887;28;20298;-83
2021/01/02 07:32:05;;;;;;;4.27;3.87;;;0.70;99.90;;;;;;5070535;28;20730;-82
2021/01/02 07:34:32;;;;;;;6.10;5.13;;;0.70;99.90;;;;;;5070406;28;20621;-82
2021/01/02 07:37:03;;;;;;;6.67;4.43;;;0.70;99.90;;;;;;5070401;28;20209;-83
2021/01/02 07:39:29;;;;;;;5.30;4.77;;;0.60;99.90;;;;;;5070900;28;20233;-83
2021/01/02 07:41:57;;;;;;;5.43;4.40;;;0.60;99.90;;;;;;5070018;28;20203;-80
2021/01/02 07:44:24;;;;;;;5.27;4.77;;;0.50;99.90;;;;;;5070814;28;20202;-83
2021/01/02 07:46:50;;;;;;;5.83;4.83;;;0.50;99.90;;;;;;5070090;28;20665;-78
2021/01/02 07:49:17;;;;;;;4.50;3.97;;;0.50;99.90;;;;;;5070782;28;20265;-80
2021/01/02 07:51:47;;;;;;;5.90;4.73;;;0.50;99.90;;;;;;5070346;28;20210;-79
2021/01/02 07:54:26;;;;;;;7.47;5.13;;;0.80;99.90;;;;;;5070871;28;20199;-75
2021/01/02 07:56:53;;;;;;;5.27;4.53;;;0.80;99.90;;;;;;5069774;28;20669;-82
2021/01/02 07:59:27;;;;;;;5.90;4.57;;;0.90;99.90;;;;;;5070850;28;20245;-80
2021/01/02 08:01:55;;;;;;;4.87;4.37;;;1.00;99.90;;;;;;5070012;28;20241;-80
2021/01/02 08:04:24;;;;;;;7.43;4.77;;;1.00;99.90;;;;;;5070407;28;20758;-81
2021/01/02 08:06:53;;;;;;;5.80;4.37;;;1.00;99.90;;;;;;5069694;28;20206;-81
2021/01/02 08:09:19;;;;;;;5.67;4.77;;;0.90;99.90;;;;;;5070005;28;20225;-81
2021/01/02 08:11:54;;;;;;;7.57;4.97;;;0.90;99.90;;;;;;5071403;28;20284;-77
2021/01/02 08:14:22;;;;;;;6.67;4.40;;;0.80;99.90;;;;;;5074679;28;20244;-81
2021/01/02 08:17:00;;;;;;;5.77;4.30;;;0.70;99.90;;;;;;5074177;28;20217;-81
2021/01/02 08:19:32;;;;;;;6.50;4.73;;;0.70;99.90;;;;;;5074043;28;20205;-80
2021/01/02 08:21:59;;;;;;;7.37;4.93;;;0.60;99.90;;;;;;5074268;28;20213;-81
2021/01/02 08:24:26;;;;;;;5.70;4.70;;;0.70;99.90;;;;;;5074627;28;20216;-81
2021/01/02 08:26:52;;;;;;;6.63;5.83;;;0.60;99.90;;;;;;5074082;28;20229;-79
2021/01/02 08:29:19;;;;;;;7.43;5.70;;;0.60;99.90;;;;;;5074215;28;20265;-80
2021/01/02 08:31:50;;;;;;;7.70;5.53;;;0.60;99.90;;;;;;5073893;28;20203;-70
2021/01/02 08:34:30;;;;;;;9.70;5.33;;;0.60;99.90;;;;;;5074141;28;20202;-81
2021/01/02 08:37:07;;;;;;;7.03;5.53;;;0.70;99.90;;;;;;5073400;28;20696;-81
2021/01/02 08:39:33;;;;;;;8.70;5.40;;;0.70;99.90;;;;;;5073934;28;20238;-80
2021/01/02 08:42:01;;;;;;;9.70;7.20;;;0.70;99.90;;;;;;5073250;28;20210;-80
2021/01/02 08:44:31;;;;;;;9.53;6.83;;;0.70;99.90;;;;;;5072448;28;20210;-69
2021/01/02 08:46:58;;;;;;;9.47;7.27;;;0.80;99.90;;;;;;5073010;28;20712;-73
2021/01/02 08:49:30;;;;;;;7.90;5.33;;;1.00;99.90;;;;;;5073211;28;20790;-80
2021/01/02 08:52:34;;;;;;;6.70;5.70;;;1.00;99.90;;;;;;5072844;28;20209;-80
2021/01/02 08:55:10;;;;;;;6.73;5.63;;;1.30;99.90;;;;;;5072752;28;20216;-79
2021/01/02 08:57:42;;;;;;;6.57;5.17;;;1.20;99.90;;;;;;5073132;28;20220;-79
2021/01/02 09:00:17;;;;;;;7.30;5.73;;;1.20;99.90;;;;;;5072889;28;20722;-77
2021/01/02 09:02:46;;;;;;;6.90;6.07;;;1.30;99.90;;;;;;5062905;28;20240;-75
2021/01/02 09:05:15;;;;;;;8.10;5.47;;;1.10;99.90;;;;;;5073791;28;20207;-79
2021/01/02 09:07:56;;;;;;;7.77;5.87;;;0.90;99.90;;;;;;5073394;28;20261;-83
2021/01/02 09:10:27;;;;;;;5.80;5.03;;;1.00;99.90;;;;;;5073641;28;20206;-81
2021/01/02 09:13:10;;;;;;;6.80;5.37;;;1.20;99.90;;;;;;5073060;28;20260;-81
2021/01/02 09:15:51;;;;;;;9.13;5.67;;;1.30;99.90;;;;;;5073490;28;20283;-73
2021/01/02 09:18:35;;;;;;;5.40;4.63;;;1.20;99.90;;;;;;5072852;28;20202;-75
2021/01/02 09:21:21;;;;;;;7.47;6.03;;;1.00;99.90;;;;;;5070190;28;20280;-77
2021/01/02 09:23:47;;;;;;;6.73;5.20;;;1.00;99.90;;;;;;5070733;28;20211;-76
2021/01/02 09:26:25;;;;;;;6.77;5.87;;;0.90;99.90;;;;;;5070182;28;20206;-75
2021/01/02 09:28:53;;;;;;;6.97;5.30;;;1.00;99.90;;;;;;5068629;28;20587;-80
2021/01/02 09:31:20;;;;;;;6.33;4.40;;;1.10;99.90;;;;;;5073026;28;20202;-78
2021/01/02 09:33:47;;;;;;;7.80;5.57;;;1.10;99.90;;;;;;5068883;28;20221;-79
2021/01/02 09:36:14;;;;;;;6.73;5.60;;;1.10;99.90;;;;;;5072783;28;20234;-76
2021/01/02 09:38:42;;;;;;;7.40;4.63;;;1.10;99.90;;;;;;5068661;28;20227;-80
2021/01/02 09:41:11;;;;;;;6.53;5.60;;;1.30;99.90;;;;;;5068415;28;20210;-81
2021/01/02 09:43:38;;;;;;;5.60;4.60;;;1.20;99.90;;;;;;5072514;28;20209;-81
2021/01/02 09:46:04;;;;;;;7.23;5.67;;;1.30;99.90;;;;;;5068504;28;20625;-72
2021/01/02 09:48:31;;;;;;;7.93;6.03;;;1.30;99.90;;;;;;5065785;28;20743;-79
2021/01/02 09:50:58;;;;;;;6.70;4.67;;;1.20;99.90;;;;;;5070171;28;20213;-80
2021/01/02 09:53:24;;;;;;;7.13;4.53;;;1.20;99.90;;;;;;5069395;28;20214;-77
2021/01/02 09:55:50;;;;;;;6.47;4.80;;;1.30;99.90;;;;;;5064206;28;20210;-81
2021/01/02 09:58:18;;;;;;;5.53;4.07;;;1.30;99.90;;;;;;5072647;28;20218;-79
2021/01/02 10:00:44;;;;;;;6.60;5.13;;;1.40;99.90;;;;;;5071566;28;20205;-74
2021/01/02 10:03:11;;;;;;;7.37;5.73;;;1.70;99.90;;;;;;5064595;28;20256;-80
2021/01/02 10:05:38;;;;;;;9.47;5.90;;;1.80;99.90;;;;;;5072116;28;20666;-80
2021/01/02 10:08:05;;;;;;;6.57;5.13;;;1.80;99.90;;;;;;5068499;28;20265;-79
2021/01/02 10:10:32;;;;;;;6.63;5.10;;;1.70;99.90;;;;;;5069227;28;20206;-80
2021/01/02 10:12:59;;;;;;;4.97;4.13;;;1.80;99.90;;;;;;5068452;28;20234;-80
2021/01/02 10:15:26;;;;;;;6.13;4.83;;;1.80;99.90;;;;;;5067281;28;20603;-77
2021/01/02 10:17:53;;;;;;;5.53;4.97;;;1.80;99.90;;;;;;5064996;28;20206;-82
2021/01/02 10:20:19;;;;;;;11.07;5.17;;;1.70;99.90;;;;;;5067283;28;20209;-82
2021/01/02 10:22:46;;;;;;;6.57;4.83;;;1.90;99.90;;;;;;5069269;28;20238;-76
2021/01/02 10:25:13;;;;;;;7.23;5.57;;;2.00;99.90;;;;;;5071533;28;20198;-79
2021/01/02 10:27:39;;;;;;;6.33;5.40;;;2.20;99.90;;;;;;5072438;28;20268;-81
2021/01/02 10:30:09;;;;;;;10.00;6.90;;;2.10;99.90;;;;;;5070874;28;20225;-79
2021/01/02 10:32:36;;;;;;;7.33;6.03;;;2.10;99.90;;;;;;5072019;28;20214;-78
2021/01/02 10:35:03;;;;;;;5.67;4.77;;;2.00;99.90;;;;;;5068827;28;20253;-79
2021/01/02 10:37:30;;;;;;;10.07;5.63;;;2.00;99.90;;;;;;5070206;28;20234;-79
2021/01/02 10:39:57;;;;;;;6.40;4.50;;;1.90;99.90;;;;;;5070525;28;20216;-82
2021/01/02 10:42:28;;;;;;;8.83;5.53;;;2.10;99.90;;;;;;5071733;28;20202;-81
2021/01/02 10:44:55;;;;;;;6.47;5.70;;;2.00;99.90;;;;;;5064257;28;20208;-81
2021/01/02 10:47:23;;;;;;;7.50;5.07;;;2.20;99.90;;;;;;5071293;28;20202;-79
2021/01/02 10:49:51;;;;;;;6.83;5.23;;;2.30;99.90;;;;;;5070201;28;20206;-80
2021/01/02 10:52:19;;;;;;;8.70;6.13;;;2.30;99.90;;;;;;5071316;28;20206;-81
2021/01/02 10:54:46;;;;;;;6.67;5.90;;;2.10;99.90;;;;;;5070427;28;20241;-73
2021/01/02 10:57:13;;;;;;;7.27;5.37;;;2.10;99.90;;;;;;5067262;28;20198;-80
2021/01/02 10:59:43;;;;;;;6.00;5.33;;;2.30;99.90;;;;;;5062659;28;20227;-81
2021/01/02 11:02:10;;;;;;;7.77;5.87;;;2.50;99.90;;;;;;5065697;28;20212;-77
2021/01/02 11:04:37;;;;;;;7.47;5.63;;;2.70;99.90;;;;;;5071169;28;20206;-83
2021/01/02 11:07:04;;;;;;;8.80;6.23;;;2.80;99.90;;;;;;5070605;28;20676;-81
2021/01/02 11:09:31;;;;;;;9.10;6.47;;;2.60;99.90;;;;;;5065454;28;20241;-81
2021/01/02 11:11:58;;;;;;;11.97;6.00;;;2.50;99.90;;;;;;5071138;28;20202;-82
2021/01/02 11:14:25;;;;;;;10.83;7.97;;;2.60;99.90;;;;;;5071021;28;20696;-83
2021/01/02 11:16:51;;;;;;;9.07;5.80;;;2.50;99.90;;;;;;5064923;28;20212;-82
2021/01/02 11:19:19;;;;;;;8.73;5.90;;;2.40;99.90;;;;;;5068005;28;20206;-85
2021/01/02 11:21:47;;;;;;;13.40;10.10;;;2.40;99.90;;;;;;5071298;28;20210;-75
2021/01/02 11:24:17;;;;;;;8.50;6.07;;;2.60;99.90;;;;;;5072055;28;20253;-81
2021/01/02 11:26:45;;;;;;;9.43;5.83;;;2.40;99.90;;;;;;5071113;28;20202;-75
2021/01/02 11:29:12;;;;;;;19.57;12.93;;;2.50;99.90;;;;;;5071237;28;20234;-79
2021/01/02 11:31:38;;;;;;;10.37;6.97;;;2.60;99.90;;;;;;5071335;28;20289;-80
2021/01/02 11:34:05;;;;;;;11.60;7.03;;;2.60;99.90;;;;;;5066676;28;20705;-84
2021/01/02 11:36:32;;;;;;;7.57;5.67;;;2.80;99.90;;;;;;5071105;28;20206;-81
2021/01/02 11:38:59;;;;;;;11.63;10.43;;;2.70;99.90;;;;;;5069517;28;20209;-81
2021/01/02 11:41:34;;;;;;;8.80;6.93;;;2.60;99.90;;;;;;5071161;28;20635;-77
2021/01/02 11:44:01;;;;;;;8.83;6.83;;;2.50;99.90;;;;;;5068657;28;20282;-85
2021/01/02 11:46:30;;;;;;;12.50;8.23;;;2.60;99.90;;;;;;5071018;28;20255;-76
2021/01/02 11:48:56;;;;;;;8.73;6.10;;;2.50;99.90;;;;;;5070611;28;20234;-83
2021/01/02 11:51:24;;;;;;;11.17;6.53;;;2.60;99.90;;;;;;5071206;28;20297;-85
2021/01/02 11:53:50;;;;;;;10.77;8.30;;;2.50;99.90;;;;;;5070476;28;20696;-83
2021/01/02 11:56:19;;;;;;;10.23;6.17;;;2.60;99.90;;;;;;5071226;28;20210;-79
2021/01/02 11:58:46;;;;;;;7.87;5.37;;;2.50;99.90;;;;;;5071043;28;20271;-75
2021/01/02 12:01:13;;;;;;;7.77;5.63;;;2.50;99.90;;;;;;5071898;28;20210;-80
2021/01/02 12:03:39;;;;;;;10.20;9.13;;;2.50;99.90;;;;;;5071315;28;20255;-85
2021/01/02 12:06:06;;;;;;;7.23;6.03;;;2.60;99.90;;;;;;5060812;28;20221;-84
2021/01/02 12:08:32;;;;;;;7.43;5.70;;;2.80;99.90;;;;;;5063726;28;20233;-76
2021/01/02 12:10:58;;;;;;;11.83;6.70;;;2.90;99.90;;;;;;5070008;28;20562;-77
2021/01/02 12:13:25;;;;;;;8.40;6.33;;;2.80;99.90;;;;;;5070939;28;20220;-80
2021/01/02 12:15:52;;;;;;;9.07;7.50;;;2.30;99.90;;;;;;5070236;28;20217;-80
2021/01/02 12:18:19;;;;;;;8.13;6.77;;;2.40;99.90;;;;;;5070233;28;20213;-79
2021/01/02 12:20:46;;;;;;;8.50;6.30;;;2.60;99.90;;;;;;5069987;28;20297;-74
2021/01/02 12:23:14;;;;;;;10.13;6.73;;;2.60;99.90;;;;;;5064130;28;20666;-86
2021/01/02 12:25:40;;;;;;;9.23;5.87;;;2.50;99.90;;;;;;5070803;28;20223;-81
2021/01/02 12:28:06;;;;;;;7.83;5.70;;;2.70;99.90;;;;;;5069665;28;20737;-83
2021/01/02 12:30:33;;;;;;;7.77;5.67;;;2.70;99.90;;;;;;5070767;28;20213;-80
2021/01/02 12:33:00;;;;;;;8.07;6.13;;;2.80;99.90;;;;;;5070140;28;20230;-78
2021/01/02 12:35:27;;;;;;;7.73;5.67;;;2.80;99.90;;;;;;5070913;28;20259;-79
2021/01/02 12:37:53;;;;;;;6.33;5.20;;;2.80;99.90;;;;;;5070097;28;20215;-81
2021/01/02 12:40:21;;;;;;;7.53;6.27;;;2.50;99.90;;;;;;5070013;28;20248;-84
2021/01/02 12:42:47;;;;;;;8.73;6.47;;;2.40;99.90;;;;;;5070368;28;20202;-82
2021/01/02 12:45:15;;;;;;;8.27;6.13;;;2.40;99.90;;;;;;5070578;28;20218;-75
2021/01/02 12:47:41;;;;;;;5.73;5.07;;;2.50;99.90;;;;;;5070890;28;20731;-80
2021/01/02 12:50:11;;;;;;;6.90;5.07;;;2.40;99.90;;;;;;5069977;28;20210;-79
2021/01/02 12:52:38;;;;;;;8.10;5.87;;;2.40;99.90;;;;;;5070063;28;20622;-80
2021/01/02 12:55:06;;;;;;;16.27;10.60;;;2.30;99.90;;;;;;5068686;28;20230;-79
2021/01/02 12:57:32;;;;;;;7.70;5.97;;;2.30;99.90;;;;;;5059136;28;20246;-82
2021/01/02 12:59:59;;;;;;;10.37;7.90;;;2.20;99.90;;;;;;5073318;28;20688;-81
2021/01/02 13:02:25;;;;;;;10.57;7.37;;;2.20;99.90;;;;;;5073501;28;20238;-81
2021/01/02 13:04:53;;;;;;;11.00;8.80;;;2.20;99.90;;;;;;5073400;28;20211;-80